METAR Data
IDs: Format: Raw Decoded Include TAF

Data at: 1920 UTC 26 Sep 2021

FABL 261900Z AUTO 00000KT 9999 ///////// 17/02 Q1019